Time;durP1;ratioP1;P1;durP2;ratioP2;P2;SDS_P1;SDS_P2;PMS_P1;PMS_P2;Temp;Humidity;BMP_temperature;BMP_pressure;BME280_temperature;BME280_humidity;BME280_pressure;Samples;Min_cycle;Max_cycle;Signal;HPM_P1;HPM_P2
2023/01/17 00:01:47;;;;;;;3.20;1.48;;;;;;;-0.13;75.08;97523.94;4913255;29;20055;-68
2023/01/17 00:09:53;;;;;;;5.80;2.03;;;;;;;-0.21;75.25;97521.34;4912239;29;20442;-66
2023/01/17 00:12:20;;;;;;;3.90;1.80;;;;;;;-0.14;75.09;97518.84;4913829;29;20048;-66
2023/01/17 00:14:47;;;;;;;5.43;1.70;;;;;;;-0.16;75.00;97520.81;4912584;29;20497;-67
2023/01/17 00:17:14;;;;;;;2.88;1.75;;;;;;;-0.24;75.58;97503.25;4913179;29;20473;-66
2023/01/17 01:35:35;;;;;;;7.25;1.95;;;;;;;-0.77;77.49;97470.50;4889999;29;20040;-65
2023/01/17 01:38:02;;;;;;;3.75;1.88;;;;;;;-0.67;77.74;97468.50;4897014;29;20055;-65
2023/01/17 01:40:28;;;;;;;3.28;1.70;;;;;;;-0.68;77.46;97465.00;4896636;29;20091;-65
2023/01/17 01:42:58;;;;;;;2.67;1.67;;;;;;;-0.72;77.63;97466.34;4898341;29;20124;-64
2023/01/17 01:45:27;;;;;;;3.88;1.90;;;;;;;-0.69;77.33;97467.81;4898003;29;20048;-65
2023/01/17 01:48:00;;;;;;;2.92;1.60;;;;;;;-0.71;77.25;97464.53;4896433;29;20045;-65
2023/01/17 01:50:29;;;;;;;4.13;2.13;;;;;;;-0.72;77.17;97453.19;4891543;29;20116;-66
2023/01/17 01:52:59;;;;;;;3.60;1.90;;;;;;;-0.61;76.87;97464.34;4896850;29;20054;-66
2023/01/17 01:55:30;;;;;;;3.03;1.80;;;;;;;-0.65;77.18;97453.34;4896957;29;20059;-67
2023/01/17 01:58:02;;;;;;;3.08;1.63;;;;;;;-0.70;76.98;97456.47;4896596;29;20075;-67
2023/01/17 02:00:33;;;;;;;5.45;1.92;;;;;;;-0.61;76.84;97454.63;4895909;29;20060;-66
2023/01/17 02:03:06;;;;;;;3.78;2.00;;;;;;;-0.68;76.84;97461.56;4895121;29;20131;-67
2023/01/17 02:09:20;;;;;;;5.40;2.28;;;;;;;-0.66;76.75;97447.25;4914399;29;20047;-66
2023/01/17 02:11:48;;;;;;;2.55;1.80;;;;;;;-0.61;76.55;97445.91;4915138;29;20416;-66
2023/01/17 02:14:16;;;;;;;3.88;2.13;;;;;;;-0.63;76.45;97442.66;4916336;29;20217;-66
2023/01/17 02:16:45;;;;;;;4.95;2.10;;;;;;;-0.67;76.49;97450.06;4897950;29;20062;-66
2023/01/17 02:19:49;;;;;;;7.70;2.50;;;;;;;-0.67;76.81;97447.44;4915976;29;20075;-66
2023/01/17 02:22:30;;;;;;;3.85;1.98;;;;;;;-0.59;76.47;97444.75;4915117;29;20059;-66
2023/01/17 02:25:34;;;;;;;3.95;1.85;;;;;;;-0.61;76.83;97438.03;4916049;29;20048;-65
2023/01/17 02:28:12;;;;;;;4.97;2.30;;;;;;;-0.53;76.68;97436.19;4915248;29;20421;-66
2023/01/17 02:30:44;;;;;;;3.60;2.17;;;;;;;-0.55;76.33;97440.78;4914891;29;20059;-66
2023/01/17 02:33:23;;;;;;;4.95;2.20;;;;;;;-0.51;76.42;97446.53;4915812;29;20040;-67
2023/01/17 02:36:15;;;;;;;3.65;2.13;;;;;;;-0.47;76.23;97446.06;4916189;29;20048;-67
2023/01/17 02:38:48;;;;;;;5.90;2.10;;;;;;;-0.42;76.03;97443.72;4904739;29;20420;-66
2023/01/17 02:41:22;;;;;;;4.78;2.08;;;;;;;-0.36;75.83;97447.50;4915436;29;20048;-66
2023/01/17 02:43:50;;;;;;;3.88;1.65;;;;;;;-0.42;76.11;97437.63;4915692;29;20056;-67
2023/01/17 02:46:16;;;;;;;2.65;1.80;;;;;;;-0.34;75.86;97440.22;4915669;29;20058;-67
2023/01/17 02:48:44;;;;;;;5.32;2.63;;;;;;;-0.34;75.91;97444.66;4915471;29;20058;-66
2023/01/17 02:51:37;;;;;;;5.97;2.13;;;;;;;-0.33;75.71;97447.16;4914821;29;20104;-66
2023/01/17 02:54:07;;;;;;;3.28;2.13;;;;;;;-0.33;76.31;97441.03;4917128;29;20490;-69
2023/01/17 02:57:00;;;;;;;6.15;2.28;;;;;;;-0.31;76.18;97449.59;4915856;29;20051;-68
2023/01/17 02:59:45;;;;;;;6.50;2.22;;;;;;;-0.31;76.33;97450.41;4914998;29;20501;-65
2023/01/17 03:02:20;;;;;;;2.90;2.08;;;;;;;-0.37;76.60;97451.09;4914862;29;20044;-65
2023/01/17 03:04:52;;;;;;;5.95;2.05;;;;;;;-0.40;77.64;97458.50;4914299;29;20060;-66
2023/01/17 03:07:24;;;;;;;4.57;1.90;;;;;;;-0.31;77.98;97454.88;4915452;29;20048;-66
2023/01/17 03:10:00;;;;;;;4.35;1.75;;;;;;;-0.28;78.68;97451.91;4914624;29;20052;-66
2023/01/17 03:12:33;;;;;;;3.95;1.98;;;;;;;-0.23;79.03;97460.09;4897863;29;20051;-67
2023/01/17 03:14:59;;;;;;;3.58;1.50;;;;;;;-0.23;80.38;97458.28;4914806;29;20072;-66
2023/01/17 03:17:31;;;;;;;2.45;1.48;;;;;;;-0.23;81.24;97455.63;4915217;29;20167;-66
2023/01/17 03:19:57;;;;;;;4.53;1.42;;;;;;;-0.20;81.93;97457.13;4915239;29;20107;-66
2023/01/17 03:22:24;;;;;;;2.95;1.52;;;;;;;-0.20;82.63;97452.66;4897916;29;20424;-66
2023/01/17 03:24:50;;;;;;;3.05;1.45;;;;;;;-0.20;82.42;97451.84;4915195;29;20054;-66
2023/01/17 03:27:17;;;;;;;2.33;1.15;;;;;;;-0.14;82.54;97453.00;4914442;29;20059;-66
2023/01/17 03:29:43;;;;;;;5.95;1.15;;;;;;;-0.12;82.84;97456.25;4914472;29;20056;-66
2023/01/17 03:32:09;;;;;;;1.92;1.25;;;;;;;-0.10;83.03;97447.19;4914479;29;20058;-67
2023/01/17 03:34:36;;;;;;;2.00;1.08;;;;;;;-0.09;83.64;97448.00;4906053;29;20052;-65
2023/01/17 03:37:02;;;;;;;1.60;1.10;;;;;;;-0.09;83.99;97450.63;4914938;29;20067;-67
2023/01/17 03:39:29;;;;;;;2.10;1.20;;;;;;;-0.09;84.03;97454.09;4914848;29;20050;-67
2023/01/17 03:41:55;;;;;;;2.53;1.25;;;;;;;-0.10;84.35;97449.00;4914336;29;20107;-67
2023/01/17 03:44:22;;;;;;;3.35;0.98;;;;;;;-0.04;84.43;97449.16;4907788;29;20052;-66
2023/01/17 03:46:48;;;;;;;2.25;1.15;;;;;;;-0.03;84.25;97449.97;4914196;29;20075;-65
2023/01/17 03:49:15;;;;;;;2.17;1.10;;;;;;;-0.00;83.89;97446.97;4914195;29;20044;-67
2023/01/17 03:51:42;;;;;;;1.75;0.90;;;;;;;-0.01;84.29;97447.97;4914063;29;20127;-66
2023/01/17 03:54:08;;;;;;;2.13;1.00;;;;;;;0.02;84.07;97452.91;4914340;29;20130;-65
2023/01/17 03:56:35;;;;;;;2.20;1.10;;;;;;;0.03;83.95;97447.47;4915185;29;20044;-67
2023/01/17 03:59:01;;;;;;;1.95;1.08;;;;;;;0.02;83.76;97451.09;4914320;29;20051;-67
2023/01/17 04:01:28;;;;;;;1.00;0.80;;;;;;;-0.01;83.72;97454.06;4896413;29;20048;-66
2023/01/17 04:03:54;;;;;;;2.63;1.23;;;;;;;0.08;83.74;97464.56;4914288;29;20052;-67
2023/01/17 04:06:21;;;;;;;2.63;1.00;;;;;;;0.04;84.13;97459.63;4913414;29;20497;-66
2023/01/17 04:08:47;;;;;;;2.55;0.95;;;;;;;0.05;83.81;97461.28;4913018;29;20056;-66
2023/01/17 04:11:14;;;;;;;1.38;0.80;;;;;;;0.11;83.54;97459.75;4914242;29;20048;-67
2023/01/17 04:13:40;;;;;;;1.13;0.73;;;;;;;0.09;83.44;97468.81;4914029;29;20424;-67
2023/01/17 04:16:12;;;;;;;1.85;0.85;;;;;;;0.14;83.54;97458.59;4912880;29;20048;-68
2023/01/17 04:18:39;;;;;;;2.50;1.25;;;;;;;0.12;83.70;97464.06;4913516;29;20494;-66
2023/01/17 04:21:06;;;;;;;4.70;1.02;;;;;;;0.16;83.97;97467.16;4914426;29;20054;-66
2023/01/17 04:23:33;;;;;;;2.75;0.90;;;;;;;0.16;85.20;97472.44;4914476;29;20050;-67
2023/01/17 04:26:02;;;;;;;1.33;0.57;;;;;;;0.10;85.61;97478.41;4914225;29;20058;-67
2023/01/17 04:28:30;;;;;;;1.63;0.80;;;;;;;0.09;86.86;97471.47;4913186;29;20048;-66
2023/01/17 04:30:58;;;;;;;1.00;0.73;;;;;;;0.08;87.15;97477.75;4913507;29;20138;-66
2023/01/17 04:33:25;;;;;;;2.22;0.73;;;;;;;0.09;87.16;97484.63;4913779;29;20048;-67
2023/01/17 04:35:52;;;;;;;1.90;0.80;;;;;;;0.08;87.42;97475.09;4913555;29;20062;-66
2023/01/17 04:38:19;;;;;;;1.52;0.70;;;;;;;0.10;87.35;97483.66;4913264;29;20040;-65
2023/01/17 04:40:45;;;;;;;0.82;0.63;;;;;;;0.11;87.43;97483.47;4913968;29;20108;-66
2023/01/17 04:43:12;;;;;;;0.90;0.63;;;;;;;0.11;87.38;97482.66;4913330;29;20461;-67
2023/01/17 04:45:38;;;;;;;0.60;0.50;;;;;;;0.13;87.01;97481.50;4913316;29;20052;-68
2023/01/17 04:48:05;;;;;;;2.03;0.98;;;;;;;0.14;87.28;97485.78;4913777;29;20063;-66
2023/01/17 04:50:32;;;;;;;1.25;0.80;;;;;;;0.19;87.67;97488.72;4913918;29;20060;-66
2023/01/17 04:52:59;;;;;;;2.38;0.90;;;;;;;0.17;88.20;97492.53;4913296;29;20119;-67
2023/01/17 04:55:26;;;;;;;0.73;0.63;;;;;;;0.12;88.73;97490.41;4913801;29;20044;-66
2023/01/17 04:57:53;;;;;;;0.85;0.60;;;;;;;0.14;89.44;97498.97;4913058;29;20502;-66
2023/01/17 05:00:20;;;;;;;1.73;0.90;;;;;;;0.12;89.72;97505.38;4914394;29;20059;-66
2023/01/17 05:02:50;;;;;;;1.05;0.70;;;;;;;0.16;89.46;97509.34;4917690;29;20048;-66
2023/01/17 05:05:17;;;;;;;1.52;0.93;;;;;;;0.19;89.99;97519.53;4916859;29;20371;-67
2023/01/17 05:07:51;;;;;;;1.00;0.60;;;;;;;0.18;90.60;97520.53;4917622;29;20058;-67
2023/01/17 05:10:17;;;;;;;0.47;0.43;;;;;;;0.20;90.20;97524.63;4917035;29;20051;-67
2023/01/17 05:12:52;;;;;;;0.55;0.40;;;;;;;0.28;90.25;97526.41;4916981;29;20051;-66
2023/01/17 05:15:19;;;;;;;2.00;0.70;;;;;;;0.24;90.85;97530.38;4915707;29;20048;-66
2023/01/17 05:17:45;;;;;;;0.77;0.50;;;;;;;0.18;91.13;97518.69;4916899;29;20052;-66
2023/01/17 05:20:12;;;;;;;0.98;0.80;;;;;;;0.17;90.99;97532.88;4917476;29;20052;-67
2023/01/17 05:22:38;;;;;;;1.20;0.70;;;;;;;0.16;91.39;97530.44;4917728;29;20052;-68
2023/01/17 05:25:05;;;;;;;1.23;1.00;;;;;;;0.19;91.71;97538.81;4917668;29;20054;-66
2023/01/17 05:27:31;;;;;;;1.67;0.80;;;;;;;0.19;91.54;97545.88;4917315;29;20054;-67
2023/01/17 05:29:58;;;;;;;0.55;0.55;;;;;;;0.19;91.30;97551.16;4916901;29;20060;-67
2023/01/17 05:32:24;;;;;;;0.80;0.60;;;;;;;0.22;91.57;97561.34;4916338;29;20056;-66
2023/01/17 05:34:51;;;;;;;1.77;0.77;;;;;;;0.24;91.07;97560.19;4917114;29;20063;-68
2023/01/17 05:37:17;;;;;;;0.65;0.65;;;;;;;0.24;90.44;97557.56;4917086;29;20417;-67
2023/01/17 05:39:44;;;;;;;1.45;0.80;;;;;;;0.27;89.73;97564.31;4916530;29;20104;-66
2023/01/17 05:42:10;;;;;;;0.77;0.65;;;;;;;0.24;89.78;97565.47;4915657;29;20051;-68
2023/01/17 05:44:37;;;;;;;0.93;0.80;;;;;;;0.32;89.46;97567.25;4916294;29;20058;-68
2023/01/17 05:47:04;;;;;;;1.10;0.90;;;;;;;0.29;88.55;97570.22;4916540;29;20477;-67
2023/01/17 05:49:30;;;;;;;4.38;0.93;;;;;;;0.27;87.84;97586.22;4916225;29;20413;-67
2023/01/17 05:51:57;;;;;;;1.98;1.02;;;;;;;0.28;87.80;97587.03;4899711;29;20048;-66
2023/01/17 05:54:23;;;;;;;1.95;1.10;;;;;;;0.34;87.74;97594.28;4915603;29;20052;-67
2023/01/17 05:56:50;;;;;;;1.15;0.80;;;;;;;0.23;87.21;97595.47;4916531;29;20067;-67
2023/01/17 05:59:16;;;;;;;1.27;0.90;;;;;;;0.24;87.84;97597.09;4915817;29;20139;-66
2023/01/17 06:01:57;;;;;;;1.08;0.90;;;;;;;0.27;87.69;97606.50;4916861;29;20052;-65
2023/01/17 06:04:24;;;;;;;1.20;0.90;;;;;;;0.30;87.95;97608.81;4916359;29;20524;-65
2023/01/17 06:06:50;;;;;;;1.30;0.90;;;;;;;0.19;88.34;97611.78;4898887;29;20095;-65
2023/01/17 06:09:16;;;;;;;1.30;1.10;;;;;;;0.22;88.23;97614.91;4916911;29;20044;-65
2023/01/17 06:11:43;;;;;;;1.67;1.10;;;;;;;0.18;88.87;97612.78;4900024;29;20063;-65
2023/01/17 06:14:09;;;;;;;1.33;1.17;;;;;;;0.23;88.92;97615.75;4918369;29;20409;-67
2023/01/17 06:16:36;;;;;;;2.15;1.30;;;;;;;0.20;89.43;97622.19;4918264;29;20054;-68
2023/01/17 06:19:02;;;;;;;1.55;1.35;;;;;;;0.18;89.61;97615.41;4918942;29;20557;-66
2023/01/17 06:21:29;;;;;;;2.33;1.48;;;;;;;0.22;89.76;97616.72;4918532;29;20103;-67
2023/01/17 06:23:55;;;;;;;1.90;1.10;;;;;;;0.22;89.44;97622.00;4917055;29;20052;-66
2023/01/17 06:26:22;;;;;;;1.58;1.33;;;;;;;0.15;89.22;97623.66;4917696;29;20614;-67
2023/01/17 06:28:48;;;;;;;2.97;1.42;;;;;;;0.26;89.34;97618.88;4918126;29;20056;-67
2023/01/17 06:31:15;;;;;;;1.35;1.25;;;;;;;0.20;88.75;97627.44;4918455;29;20055;-67
2023/01/17 06:33:41;;;;;;;3.53;1.15;;;;;;;0.13;89.09;97626.47;4918285;29;20056;-67
2023/01/17 06:36:08;;;;;;;5.32;1.30;;;;;;;0.11;89.50;97631.09;4918617;29;20048;-66
2023/01/17 06:38:34;;;;;;;1.55;1.08;;;;;;;0.17;89.10;97630.41;4918375;29;20044;-66
2023/01/17 06:41:04;;;;;;;4.22;1.42;;;;;;;0.13;88.85;97630.94;4919359;29;20134;-66
2023/01/17 06:43:32;;;;;;;4.55;1.70;;;;;;;0.08;89.16;97639.34;4921505;29;20084;-66
2023/01/17 06:46:00;;;;;;;3.00;1.40;;;;;;;0.13;88.60;97647.56;4920884;29;20433;-66
2023/01/17 06:48:26;;;;;;;1.90;1.50;;;;;;;0.21;88.48;97638.81;4920473;29;20134;-66
2023/01/17 06:50:53;;;;;;;6.00;1.85;;;;;;;0.20;88.05;97645.09;4921400;29;20593;-65
2023/01/17 06:53:19;;;;;;;3.83;2.15;;;;;;;0.19;87.80;97638.16;4920454;29;20044;-66
2023/01/17 06:55:46;;;;;;;4.72;1.75;;;;;;;0.23;88.20;97656.13;4919998;29;20131;-66
2023/01/17 06:58:12;;;;;;;2.45;1.92;;;;;;;0.17;87.74;97648.88;4920010;29;20058;-67
2023/01/17 07:00:39;;;;;;;4.72;2.03;;;;;;;0.10;88.06;97668.19;4920448;29;20056;-66
2023/01/17 07:03:16;;;;;;;6.35;2.08;;;;;;;0.06;87.66;97667.69;4920490;29;20482;-65
2023/01/17 07:05:43;;;;;;;2.20;1.90;;;;;;;0.08;87.67;97665.69;4919621;29;20131;-66
2023/01/17 07:08:09;;;;;;;2.67;1.80;;;;;;;0.09;87.55;97671.78;4920665;29;20056;-66
2023/01/17 07:10:36;;;;;;;3.05;1.85;;;;;;;0.10;87.23;97674.28;4920492;29;20048;-66
2023/01/17 07:13:02;;;;;;;2.47;1.65;;;;;;;0.10;87.35;97678.72;4918983;29;20051;-66
2023/01/17 07:15:29;;;;;;;2.20;1.77;;;;;;;0.14;87.36;97682.66;4918077;29;20063;-66
2023/01/17 07:17:55;;;;;;;3.58;2.00;;;;;;;0.04;87.62;97685.47;4918062;29;20104;-66
2023/01/17 07:20:22;;;;;;;4.70;2.00;;;;;;;0.08;87.17;97683.31;4917678;29;20044;-65
2023/01/17 07:22:48;;;;;;;7.97;1.90;;;;;;;0.11;87.07;97691.72;4908625;29;20056;-66
2023/01/17 07:25:15;;;;;;;9.25;2.17;;;;;;;0.04;87.50;97686.28;4917199;29;20064;-66
2023/01/17 07:27:41;;;;;;;7.30;2.08;;;;;;;0.01;87.56;97697.16;4917662;29;20112;-66
2023/01/17 07:30:08;;;;;;;3.05;2.08;;;;;;;0.05;87.39;97698.50;4918861;29;20051;-66
2023/01/17 07:32:36;;;;;;;12.68;2.13;;;;;;;0.03;87.16;97705.75;4917688;29;20048;-66
2023/01/17 07:35:02;;;;;;;3.80;2.20;;;;;;;-0.03;87.73;97703.75;4918474;29;20131;-66
2023/01/17 07:37:29;;;;;;;8.05;1.77;;;;;;;-0.06;87.84;97698.00;4917320;29;20425;-67
2023/01/17 07:39:55;;;;;;;9.00;2.60;;;;;;;-0.00;88.33;97713.16;4901194;29;20127;-66
2023/01/17 07:42:22;;;;;;;11.68;3.25;;;;;;;0.02;88.00;97713.81;4918291;29;20048;-66
2023/01/17 07:44:49;;;;;;;4.13;2.63;;;;;;;-0.07;88.06;97707.72;4917986;29;20581;-71
2023/01/17 07:47:16;;;;;;;6.47;3.08;;;;;;;-0.04;88.49;97714.50;4917700;29;20077;-69
2023/01/17 07:49:43;;;;;;;9.38;2.83;;;;;;;-0.06;88.41;97711.19;4918212;29;20055;-70
2023/01/17 07:52:09;;;;;;;11.65;2.00;;;;;;;-0.06;88.72;97722.53;4918500;29;20072;-69
2023/01/17 07:54:36;;;;;;;13.50;2.45;;;;;;;-0.01;88.74;97716.78;4917683;29;20048;-70
2023/01/17 07:57:02;;;;;;;14.25;2.70;;;;;;;0.03;88.56;97715.47;4902533;29;20083;-70
2023/01/17 07:59:29;;;;;;;5.78;2.20;;;;;;;0.00;88.50;97716.63;4908563;29;20048;-70
2023/01/17 08:01:56;;;;;;;8.38;1.73;;;;;;;-0.00;88.76;97715.78;4908106;29;20040;-69
2023/01/17 08:04:25;;;;;;;5.13;1.90;;;;;;;-0.02;88.23;97729.16;4915815;29;20075;-70
2023/01/17 08:06:55;;;;;;;4.65;1.65;;;;;;;-0.01;88.17;97725.53;4919413;29;20107;-69
2023/01/17 08:09:21;;;;;;;8.05;1.90;;;;;;;0.04;87.89;97728.47;4918654;29;20047;-70
2023/01/17 08:11:48;;;;;;;3.80;1.65;;;;;;;0.12;87.27;97739.97;4918170;29;20104;-69
2023/01/17 08:14:15;;;;;;;8.90;1.60;;;;;;;0.13;87.17;97733.75;4918539;29;20064;-69
2023/01/17 08:16:42;;;;;;;4.00;1.35;;;;;;;0.10;86.32;97728.81;4919133;29;20524;-70
2023/01/17 08:19:09;;;;;;;8.88;1.73;;;;;;;0.16;86.30;97734.22;4919543;29;20055;-69
2023/01/17 08:21:36;;;;;;;16.67;1.75;;;;;;;0.19;86.13;97739.19;4907289;29;20048;-70
2023/01/17 08:24:03;;;;;;;4.82;1.65;;;;;;;0.12;86.49;97746.09;4907493;29;20107;-69
2023/01/17 08:26:30;;;;;;;9.15;1.58;;;;;;;0.15;85.87;97744.94;4918536;29;20048;-70
2023/01/17 08:29:01;;;;;;;13.27;2.15;;;;;;;0.17;85.47;97756.13;4917407;29;20144;-70
2023/01/17 08:31:30;;;;;;;11.43;1.98;;;;;;;0.17;85.19;97743.78;4916958;29;20147;-70
2023/01/17 08:33:57;;;;;;;14.95;1.60;;;;;;;0.20;84.77;97758.44;4917098;29;20047;-70
2023/01/17 08:36:24;;;;;;;9.10;1.38;;;;;;;0.21;84.87;97765.34;4914432;29;20570;-70
2023/01/17 08:38:51;;;;;;;6.25;1.08;;;;;;;0.26;84.10;97765.66;4917518;29;20056;-70
2023/01/17 08:41:22;;;;;;;4.95;1.65;;;;;;;0.25;83.72;97771.94;4917298;29;20056;-70
2023/01/17 08:43:50;;;;;;;4.70;1.48;;;;;;;0.38;83.34;97772.25;4907650;29;20076;-70
2023/01/17 08:46:17;;;;;;;7.45;1.33;;;;;;;0.39;83.32;97773.06;4901223;29;20044;-69
2023/01/17 08:48:44;;;;;;;1.88;1.10;;;;;;;0.37;82.73;97775.91;4918222;29;20056;-70
2023/01/17 08:51:11;;;;;;;6.32;1.30;;;;;;;0.46;82.12;97774.88;4918719;29;20063;-70
2023/01/17 08:53:41;;;;;;;3.53;1.20;;;;;;;0.37;82.30;97780.34;4916546;29;20056;-69
2023/01/17 08:56:08;;;;;;;4.05;1.40;;;;;;;0.42;82.30;97784.09;4918364;29;20083;-69
2023/01/17 08:58:35;;;;;;;5.70;1.10;;;;;;;0.34;82.29;97780.69;4917087;29;20075;-69
2023/01/17 09:01:03;;;;;;;1.13;0.85;;;;;;;0.36;81.52;97776.84;4916533;29;20076;-70
2023/01/17 09:03:31;;;;;;;3.85;1.38;;;;;;;0.42;81.58;97783.28;4889936;29;20084;-71
2023/01/17 09:06:25;;;;;;;4.03;0.93;;;;;;;0.41;81.41;97793.03;4915751;29;20052;-69
2023/01/17 09:08:53;;;;;;;1.77;0.90;;;;;;;0.47;81.03;97792.38;4896238;29;20502;-69
2023/01/17 09:11:20;;;;;;;3.30;1.38;;;;;;;0.46;80.40;97788.06;4915203;29;20457;-69
2023/01/17 09:13:50;;;;;;;7.00;1.23;;;;;;;0.47;80.58;97787.09;4916648;29;20129;-69
2023/01/17 09:16:17;;;;;;;1.92;1.05;;;;;;;0.49;79.95;97800.09;4916354;29;20067;-70
2023/01/17 09:18:43;;;;;;;2.10;0.75;;;;;;;0.56;79.48;97810.81;4907924;29;20465;-69
2023/01/17 09:21:15;;;;;;;6.35;1.00;;;;;;;0.59;78.64;97810.47;4915326;29;20071;-69
2023/01/17 09:23:44;;;;;;;3.25;0.85;;;;;;;0.62;77.95;97813.59;4916511;29;20489;-68
2023/01/17 09:26:26;;;;;;;4.07;0.75;;;;;;;0.63;77.17;97820.50;4916568;29;20131;-69
2023/01/17 09:28:53;;;;;;;1.70;0.80;;;;;;;0.63;77.19;97817.06;4915545;29;20052;-68
2023/01/17 09:31:20;;;;;;;3.92;0.70;;;;;;;0.67;76.84;97815.72;4916742;29;20449;-69
2023/01/17 09:33:48;;;;;;;1.90;0.68;;;;;;;0.65;76.84;97825.63;4914776;29;20104;-70
2023/01/17 09:36:15;;;;;;;0.98;0.65;;;;;;;0.72;76.45;97824.78;4917135;29;20044;-69
2023/01/17 09:38:43;;;;;;;1.63;0.68;;;;;;;0.73;76.71;97833.53;4912889;29;20055;-69
2023/01/17 09:41:26;;;;;;;1.67;0.50;;;;;;;0.66;76.88;97838.66;4916536;29;20115;-68
2023/01/17 09:43:55;;;;;;;2.58;0.60;;;;;;;0.66;77.65;97853.66;4917257;29;20040;-69
2023/01/17 09:46:27;;;;;;;2.28;0.43;;;;;;;0.76;77.47;97851.66;4917041;29;20044;-69
2023/01/17 09:49:08;;;;;;;5.55;0.75;;;;;;;0.57;78.50;97852.00;4910536;29;20441;-68
2023/01/17 09:51:35;;;;;;;0.85;0.50;;;;;;;0.59;78.80;97860.59;4919644;29;20524;-69
2023/01/17 09:54:02;;;;;;;4.18;0.70;;;;;;;0.53;78.95;97865.53;4920040;29;20044;-69
2023/01/17 09:56:44;;;;;;;1.30;0.77;;;;;;;0.61;78.66;97866.53;4921106;29;20107;-69
2023/01/17 09:59:41;;;;;;;2.40;0.63;;;;;;;0.62;78.58;97878.72;4920408;29;20094;-69
2023/01/17 10:02:38;;;;;;;4.57;1.00;;;;;;;0.57;78.02;97881.03;4920483;29;20044;-69
2023/01/17 10:05:33;;;;;;;5.10;1.20;;;;;;;0.73;78.66;97886.28;4921430;29;20044;-69
2023/01/17 10:08:27;;;;;;;1.30;0.60;;;;;;;0.70;78.55;97897.19;4903376;29;20053;-67
2023/01/17 10:11:38;;;;;;;3.15;0.52;;;;;;;0.62;78.97;97900.66;4918780;29;20052;-69
2023/01/17 10:14:46;;;;;;;1.95;0.85;;;;;;;0.67;78.95;97905.44;4905638;29;20044;-69
2023/01/17 10:17:49;;;;;;;1.37;0.50;;;;;;;0.69;78.98;97906.09;4923218;29;20044;-68
2023/01/17 10:20:43;;;;;;;1.00;0.50;;;;;;;0.70;78.56;97919.09;4920749;29;20071;-69
2023/01/17 10:23:37;;;;;;;1.58;0.40;;;;;;;0.67;78.37;97908.88;4880947;29;20150;-70
2023/01/17 10:26:10;;;;;;;1.33;0.50;;;;;;;0.60;78.86;97925.53;4921832;29;20117;-69
2023/01/17 10:28:47;;;;;;;1.45;0.40;;;;;;;0.44;79.89;97927.19;4920762;29;20485;-69
2023/01/17 10:31:20;;;;;;;4.85;0.70;;;;;;;0.41;80.90;97938.06;4920986;29;20500;-69
2023/01/17 10:33:51;;;;;;;5.78;0.35;;;;;;;0.41;80.89;97930.16;4920666;29;20083;-69
2023/01/17 10:36:19;;;;;;;4.38;0.52;;;;;;;0.51;80.57;97935.28;4923353;29;20111;-70
2023/01/17 10:38:51;;;;;;;4.07;0.60;;;;;;;0.38;81.06;97938.41;4920373;29;20048;-69
2023/01/17 10:41:30;;;;;;;3.45;1.23;;;;;;;0.46;79.88;97937.56;4919784;29;20533;-69
2023/01/17 10:44:21;;;;;;;3.15;0.77;;;;;;;0.57;79.56;97949.63;4921286;29;20052;-69
2023/01/17 10:46:53;;;;;;;0.40;0.25;;;;;;;0.59;80.18;97945.00;4922531;29;20157;-69
2023/01/17 10:49:23;;;;;;;3.10;0.47;;;;;;;0.53;80.25;97949.94;4921885;29;20056;-70
2023/01/17 10:52:02;;;;;;;1.60;0.60;;;;;;;0.58;80.20;97962.66;4922147;29;20052;-69
2023/01/17 10:54:45;;;;;;;1.67;0.50;;;;;;;0.44;81.55;97953.56;4921014;29;20561;-69
2023/01/17 10:57:17;;;;;;;2.78;0.68;;;;;;;0.46;82.55;97969.22;4922578;29;20048;-69
2023/01/17 10:59:44;;;;;;;0.95;0.38;;;;;;;0.49;84.02;97972.38;4920932;29;20044;-69
2023/01/17 11:02:27;;;;;;;3.42;0.50;;;;;;;0.36;85.07;97979.91;4921504;29;20044;-69
2023/01/17 11:04:56;;;;;;;0.88;0.65;;;;;;;0.31;86.01;97976.97;4924208;29;20032;-69
2023/01/17 11:07:28;;;;;;;2.60;0.55;;;;;;;0.22;86.47;97983.19;4927267;29;20052;-69
2023/01/17 11:09:56;;;;;;;1.08;0.50;;;;;;;0.24;85.90;97975.97;4922674;29;20054;-69
2023/01/17 11:12:39;;;;;;;5.70;1.42;;;;;;;0.31;86.01;97981.41;4924357;29;20047;-70
2023/01/17 11:15:09;;;;;;;4.07;0.82;;;;;;;0.31;85.25;97986.69;4920279;29;20127;-69
2023/01/17 11:17:51;;;;;;;3.95;0.70;;;;;;;0.40;84.54;97988.34;4921228;29;20079;-69
2023/01/17 11:20:41;;;;;;;3.45;0.70;;;;;;;0.17;86.47;97993.41;4920158;29;20044;-69
2023/01/17 11:23:19;;;;;;;2.03;0.77;;;;;;;0.05;88.61;97999.00;4922424;29;20492;-69
2023/01/17 11:25:56;;;;;;;2.08;0.50;;;;;;;-0.04;89.64;98005.19;4922646;29;20093;-70
2023/01/17 11:28:29;;;;;;;2.20;0.45;;;;;;;-0.10;90.06;98007.66;4921594;29;20135;-70
2023/01/17 11:31:21;;;;;;;2.83;0.70;;;;;;;-0.01;89.41;97999.63;4922837;29;20458;-69
2023/01/17 11:34:04;;;;;;;3.10;0.90;;;;;;;-0.20;89.93;98005.13;4923489;29;20088;-69
2023/01/17 11:36:31;;;;;;;1.67;0.50;;;;;;;-0.14;90.10;98008.94;4922299;29;20068;-69
2023/01/17 11:39:16;;;;;;;1.13;0.52;;;;;;;-0.24;89.89;98014.34;4905493;29;20051;-69
2023/01/17 11:41:44;;;;;;;3.05;0.50;;;;;;;-0.29;90.21;98022.72;4922897;29;20044;-69
2023/01/17 11:44:26;;;;;;;1.27;0.70;;;;;;;-0.22;91.49;98012.38;4925491;29;20394;-70
2023/01/17 11:47:11;;;;;;;2.63;0.70;;;;;;;-0.26;91.75;98030.31;4924599;29;20139;-71
2023/01/17 11:49:43;;;;;;;3.67;1.08;;;;;;;0.05;91.02;98027.13;4925360;29;20405;-70
2023/01/17 11:52:22;;;;;;;2.97;0.80;;;;;;;0.03;90.52;98024.66;4921082;29;20453;-71
2023/01/17 11:54:51;;;;;;;1.92;0.60;;;;;;;0.10;90.30;98037.22;4922899;29;20044;-71
2023/01/17 11:57:32;;;;;;;2.10;0.90;;;;;;;-0.14;91.91;98038.75;4922964;29;20044;-71
2023/01/17 12:00:20;;;;;;;4.32;0.88;;;;;;;-0.03;92.82;98029.75;4921390;29;20055;-71
2023/01/17 12:03:06;;;;;;;5.88;1.42;;;;;;;-0.13;91.95;98026.41;4921013;29;20133;-71
2023/01/17 12:05:52;;;;;;;2.45;0.90;;;;;;;0.29;91.02;98037.78;4918896;29;20465;-70
2023/01/17 12:08:44;;;;;;;5.22;1.00;;;;;;;0.92;88.58;98023.22;4919400;29;20052;-71
2023/01/17 12:11:36;;;;;;;3.08;0.70;;;;;;;1.77;83.43;98017.47;4917592;29;20048;-71
2023/01/17 12:14:25;;;;;;;3.78;0.80;;;;;;;2.31;78.81;98014.94;4917949;29;20044;-71
2023/01/17 12:17:10;;;;;;;2.10;1.25;;;;;;;2.27;77.00;98018.09;4917075;29;20548;-71
2023/01/17 12:20:00;;;;;;;4.00;1.05;;;;;;;2.09;77.99;98021.00;4918435;29;20078;-71
2023/01/17 12:22:33;;;;;;;4.10;0.80;;;;;;;1.52;79.10;98024.63;4914357;29;20048;-71
2023/01/17 12:25:13;;;;;;;5.15;1.15;;;;;;;1.31;80.94;98027.81;4919151;29;20048;-71
2023/01/17 12:27:51;;;;;;;4.55;1.52;;;;;;;1.77;78.33;98029.84;4919139;29;20067;-71
2023/01/17 12:31:03;;;;;;;7.40;1.50;;;;;;;1.66;78.30;98028.41;4920078;29;20048;-71
2023/01/17 12:33:56;;;;;;;1.95;0.70;;;;;;;1.78;76.15;98039.41;4905038;29;20059;-71
2023/01/17 12:36:38;;;;;;;3.15;0.77;;;;;;;1.54;74.75;98040.31;4910237;29;20079;-71
2023/01/17 12:39:08;;;;;;;2.47;0.80;;;;;;;2.06;71.79;98040.69;4918347;29;20048;-71
2023/01/17 12:42:00;;;;;;;2.72;1.08;;;;;;;2.41;69.96;98039.38;4918693;29;20422;-71
2023/01/17 12:44:56;;;;;;;6.65;1.15;;;;;;;3.16;65.29;98040.50;4918132;29;20068;-71
2023/01/17 12:47:24;;;;;;;4.28;1.30;;;;;;;3.03;65.16;98049.06;4919814;29;20055;-71
2023/01/17 12:50:05;;;;;;;4.20;0.85;;;;;;;2.16;67.21;98046.56;4920054;29;20048;-71
2023/01/17 12:53:23;;;;;;;3.42;0.75;;;;;;;1.75;67.83;98051.19;4918890;29;20533;-70
2023/01/17 12:55:54;;;;;;;7.50;0.90;;;;;;;1.29;69.36;98050.91;4888531;29;20040;-70
2023/01/17 12:58:24;;;;;;;2.08;0.88;;;;;;;1.10;70.39;98062.63;4918763;29;20127;-70
2023/01/17 13:01:06;;;;;;;4.90;1.50;;;;;;;1.07;70.89;98056.88;4916564;29;20050;-71
2023/01/17 13:04:06;;;;;;;8.02;1.17;;;;;;;0.95;71.74;98077.47;4917260;29;20132;-70
2023/01/17 13:06:58;;;;;;;9.00;1.05;;;;;;;0.86;71.76;98078.47;4916738;29;20147;-71
2023/01/17 13:09:44;;;;;;;6.25;1.25;;;;;;;0.90;72.55;98079.78;4916771;29;20126;-70
2023/01/17 13:12:20;;;;;;;13.25;4.25;;;;;;;0.83;72.20;98079.59;4917929;29;20058;-70
2023/01/17 13:14:47;;;;;;;7.90;1.55;;;;;;;0.69;72.00;98088.97;4915111;29;20080;-70
2023/01/17 13:17:44;;;;;;;5.00;1.33;;;;;;;0.96;71.86;98089.69;4919521;29;20075;-70
2023/01/17 13:21:03;;;;;;;4.78;1.15;;;;;;;0.89;72.90;98092.16;4918283;29;20060;-70
2023/01/17 13:23:55;;;;;;;1.30;0.70;;;;;;;1.12;72.77;98094.16;4863468;29;20129;-70
2023/01/17 13:26:53;;;;;;;4.07;1.05;;;;;;;1.34;72.70;98090.88;4863811;29;20049;-70
2023/01/17 13:29:51;;;;;;;5.50;1.50;;;;;;;1.29;71.78;98102.91;4864324;29;20148;-71
2023/01/17 13:32:29;;;;;;;3.08;0.70;;;;;;;1.29;71.12;98090.53;4867126;29;20054;-70